Time;durP1;ratioP1;P1;durP2;ratioP2;P2;SDS_P1;SDS_P2;PMS_P1;PMS_P2;Temp;Humidity;BMP_temperature;BMP_pressure;BME280_temperature;BME280_humidity;BME280_pressure;Samples;Min_cycle;Max_cycle;Signal;HPM_P1;HPM_P2
2023/07/18 00:00:17;;;;;;;0.37;0.20;;;14.10;58.10;;;;;;4827727;29;20049;-88
2023/07/18 00:02:44;;;;;;;0.30;0.30;;;14.10;57.20;;;;;;4824109;29;20320;-88
2023/07/18 00:05:12;;;;;;;0.17;0.17;;;14.10;58.70;;;;;;4823337;29;20415;-88
2023/07/18 00:07:42;;;;;;;0.10;0.10;;;14.00;59.00;;;;;;4831083;29;20085;-88
2023/07/18 00:10:09;;;;;;;0.05;0.05;;;13.90;62.10;;;;;;4812191;29;20053;-88
2023/07/18 00:12:36;;;;;;;1.17;0.75;;;13.90;63.50;;;;;;4827601;29;20050;-88
2023/07/18 00:15:04;;;;;;;0.10;0.10;;;13.90;68.30;;;;;;4845558;29;20049;-88
2023/07/18 00:17:31;;;;;;;0.10;0.10;;;13.90;66.90;;;;;;4845151;29;20061;-88
2023/07/18 00:20:02;;;;;;;0.20;0.20;;;13.90;67.20;;;;;;4845458;29;20045;-88
2023/07/18 00:22:28;;;;;;;0.50;0.25;;;13.90;65.10;;;;;;4829268;29;20057;-88
2023/07/18 00:24:57;;;;;;;0.17;0.17;;;14.70;64.70;;;;;;4830074;29;20109;-88
2023/07/18 00:27:24;;;;;;;0.20;0.20;;;13.80;66.80;;;;;;4843979;29;20083;-88
2023/07/18 00:29:52;;;;;;;0.13;0.10;;;13.80;66.90;;;;;;4843650;29;20049;-88
2023/07/18 00:32:17;;;;;;;0.03;0.03;;;13.80;69.20;;;;;;4844995;29;20057;-88
2023/07/18 00:34:44;;;;;;;0.40;0.40;;;13.70;71.00;;;;;;4829690;29;20661;-88
2023/07/18 00:37:10;;;;;;;0.20;0.20;;;13.70;70.10;;;;;;4845208;29;20053;-89
2023/07/18 00:39:35;;;;;;;0.27;0.23;;;13.60;77.50;;;;;;4829657;29;20415;-88
2023/07/18 00:42:01;;;;;;;0.30;0.23;;;13.70;76.50;;;;;;4845298;29;20771;-89
2023/07/18 00:44:27;;;;;;;0.40;0.40;;;13.60;79.70;;;;;;4844750;29;20049;-89
2023/07/18 00:46:58;;;;;;;0.20;0.20;;;13.70;77.90;;;;;;4845053;29;20081;-88
2023/07/18 00:49:24;;;;;;;0.45;0.30;;;13.60;78.90;;;;;;4845228;29;20149;-88
2023/07/18 00:51:50;;;;;;;0.20;0.20;;;13.60;80.70;;;;;;4844363;29;20053;-88
2023/07/18 00:54:20;;;;;;;0.40;0.30;;;13.70;81.70;;;;;;4829384;29;20061;-88
2023/07/18 00:56:46;;;;;;;0.77;0.20;;;13.70;80.90;;;;;;4843771;29;20053;-88
2023/07/18 00:59:16;;;;;;;0.38;0.38;;;13.70;78.40;;;;;;4843557;29;20042;-88
2023/07/18 01:01:46;;;;;;;0.30;0.30;;;13.70;79.90;;;;;;4829367;29;20435;-88
2023/07/18 01:04:11;;;;;;;0.10;0.10;;;13.60;78.10;;;;;;4829682;29;20054;-88
2023/07/18 01:06:38;;;;;;;0.13;0.13;;;13.70;78.90;;;;;;4844377;29;20414;-88
2023/07/18 01:09:05;;;;;;;;;;;13.60;77.40;;;;;;4845122;29;20045;-88
2023/07/18 01:11:35;;;;;;;0.25;0.20;;;12.80;84.50;;;;;;4844205;29;19946;-90
2023/07/18 01:14:00;;;;;;;0.10;0.10;;;13.60;81.50;;;;;;4829112;29;20057;-88
2023/07/18 01:16:29;;;;;;;0.63;0.37;;;13.50;80.20;;;;;;4829359;29;20109;-88
2023/07/18 01:18:55;;;;;;;0.20;0.20;;;13.50;83.80;;;;;;4839444;29;20053;-88
2023/07/18 01:21:22;;;;;;;0.10;0.10;;;13.50;82.00;;;;;;4829514;29;20053;-88
2023/07/18 01:23:48;;;;;;;1.35;0.68;;;13.50;82.70;;;;;;4843421;29;20310;-88
2023/07/18 01:26:17;;;;;;;0.10;0.10;;;13.50;80.90;;;;;;4859630;29;20050;-88
2023/07/18 01:28:43;;;;;;;0.30;0.30;;;13.50;85.30;;;;;;4842729;29;20048;-88
2023/07/18 01:31:10;;;;;;;0.30;0.30;;;13.40;82.90;;;;;;4828042;29;20478;-88
2023/07/18 01:33:39;;;;;;;0.20;0.20;;;13.50;86.40;;;;;;4843638;29;20498;-88
2023/07/18 01:36:06;;;;;;;0.60;0.30;;;13.40;85.30;;;;;;4844211;29;20053;-88
2023/07/18 01:38:32;;;;;;;0.20;0.20;;;13.40;87.40;;;;;;4859000;29;20058;-89
2023/07/18 01:41:01;;;;;;;0.25;0.25;;;13.40;86.70;;;;;;4828895;29;20049;-88
2023/07/18 01:43:29;;;;;;;0.32;0.30;;;13.30;87.00;;;;;;4829227;29;20053;-88
2023/07/18 01:46:01;;;;;;;0.20;0.20;;;12.50;83.90;;;;;;4843796;29;20057;-88
2023/07/18 01:48:27;;;;;;;0.32;0.32;;;13.40;89.70;;;;;;4859464;29;20144;-88
2023/07/18 01:50:53;;;;;;;0.27;0.20;;;13.40;90.20;;;;;;4843523;29;20134;-88
2023/07/18 01:53:19;;;;;;;0.20;0.20;;;13.40;91.10;;;;;;4843777;29;20299;-88
2023/07/18 01:55:55;;;;;;;0.22;0.13;;;13.40;89.10;;;;;;4858785;29;20057;-88
2023/07/18 01:58:21;;;;;;;0.45;0.45;;;13.40;89.90;;;;;;4843205;29;20045;-88
2023/07/18 02:00:47;;;;;;;0.37;0.20;;;13.30;90.00;;;;;;4843240;29;20109;-88
2023/07/18 02:03:15;;;;;;;1.48;0.40;;;13.40;90.30;;;;;;4859344;29;20759;-88
2023/07/18 02:05:41;;;;;;;0.30;0.30;;;13.40;91.00;;;;;;4843173;29;20045;-88
2023/07/18 02:08:07;;;;;;;0.95;0.20;;;13.40;91.90;;;;;;4843067;29;20046;-88
2023/07/18 02:10:35;;;;;;;0.40;0.40;;;13.40;91.10;;;;;;4840445;29;20065;-88
2023/07/18 02:13:02;;;;;;;0.45;0.40;;;13.30;90.00;;;;;;4851618;29;20049;-88
2023/07/18 02:15:31;;;;;;;0.60;0.30;;;13.30;90.80;;;;;;4858505;29;20069;-88
2023/07/18 02:17:59;;;;;;;0.32;0.30;;;13.30;89.80;;;;;;4828402;29;20057;-88
2023/07/18 02:20:24;;;;;;;1.35;0.40;;;13.30;91.50;;;;;;4828510;29;20064;-88
2023/07/18 02:23:00;;;;;;;;;;;;;;;;;;;;;
2023/07/18 02:25:28;;;;;;;0.45;0.43;;;13.20;91.30;;;;;;4861166;29;20052;-88
2023/07/18 02:27:57;;;;;;;0.75;0.45;;;13.20;91.50;;;;;;4861171;29;20041;-88
2023/07/18 02:30:30;;;;;;;0.38;0.38;;;13.20;92.30;;;;;;4845516;29;20048;-88
2023/07/18 02:32:57;;;;;;;0.80;0.43;;;13.20;91.90;;;;;;4875669;29;20049;-88
2023/07/18 02:35:26;;;;;;;0.57;0.38;;;13.20;92.80;;;;;;4846444;29;20450;-88
2023/07/18 02:37:54;;;;;;;0.20;0.20;;;13.20;93.50;;;;;;4845940;29;20056;-88
2023/07/18 02:40:20;;;;;;;0.22;0.22;;;13.10;93.00;;;;;;4861363;29;20089;-88
2023/07/18 02:42:48;;;;;;;0.35;0.25;;;13.10;93.30;;;;;;4862913;29;20057;-89
2023/07/18 02:45:14;;;;;;;0.22;0.22;;;12.30;93.40;;;;;;4857367;29;20060;-88
2023/07/18 02:47:42;;;;;;;0.20;0.20;;;13.10;93.50;;;;;;4862238;29;20049;-88
2023/07/18 02:50:11;;;;;;;0.43;0.30;;;13.10;93.70;;;;;;4847210;29;20056;-88
2023/07/18 02:52:40;;;;;;;0.40;0.20;;;13.10;93.60;;;;;;4864731;29;20041;-88
2023/07/18 02:55:06;;;;;;;0.50;0.32;;;13.10;93.80;;;;;;4853163;29;20494;-88
2023/07/18 02:57:32;;;;;;;0.80;0.80;;;12.90;93.70;;;;;;4853375;29;20491;-88
2023/07/18 02:59:59;;;;;;;0.40;0.40;;;13.10;94.30;;;;;;4857327;29;20053;-88
2023/07/18 03:02:25;;;;;;;0.32;0.32;;;13.00;94.20;;;;;;4864100;29;20128;-88
2023/07/18 03:04:53;;;;;;;0.68;0.38;;;13.00;94.30;;;;;;4863987;29;20049;-88
2023/07/18 03:07:19;;;;;;;0.85;0.30;;;13.00;94.70;;;;;;4865333;29;20132;-88
2023/07/18 03:09:45;;;;;;;0.10;0.10;;;13.00;95.20;;;;;;4849458;29;20447;-89
2023/07/18 03:12:11;;;;;;;0.40;0.40;;;13.00;95.20;;;;;;4864583;29;20044;-87
2023/07/18 03:14:36;;;;;;;0.25;0.25;;;13.10;94.80;;;;;;4864862;29;20490;-88
2023/07/18 03:17:05;;;;;;;0.27;0.27;;;13.00;93.80;;;;;;4864709;29;20049;-89
2023/07/18 03:19:31;;;;;;;0.30;0.30;;;12.90;94.90;;;;;;4865030;29;20298;-87
2023/07/18 03:21:57;;;;;;;0.30;0.30;;;13.00;95.40;;;;;;4864648;29;20064;-88
2023/07/18 03:24:25;;;;;;;0.30;0.17;;;12.90;95.40;;;;;;4865028;29;20053;-87
2023/07/18 03:26:52;;;;;;;1.10;0.85;;;12.90;94.20;;;;;;4864550;29;20052;-88
2023/07/18 03:29:21;;;;;;;0.50;0.45;;;13.00;94.30;;;;;;4864879;29;20053;-87
2023/07/18 03:31:47;;;;;;;0.35;0.20;;;13.00;94.90;;;;;;4863045;29;20124;-89
2023/07/18 03:34:12;;;;;;;0.30;0.30;;;13.00;94.70;;;;;;4879804;29;20060;-88
2023/07/18 03:36:38;;;;;;;0.60;0.40;;;12.90;94.80;;;;;;4833210;29;20053;-87
2023/07/18 03:39:05;;;;;;;0.43;0.30;;;12.90;95.30;;;;;;4800475;29;20046;-87
2023/07/18 03:41:34;;;;;;;0.70;0.60;;;12.90;95.30;;;;;;4846188;29;20101;-87
2023/07/18 03:44:00;;;;;;;0.55;0.52;;;12.90;95.40;;;;;;4830951;29;20096;-87
2023/07/18 03:46:28;;;;;;;0.80;0.27;;;12.90;95.30;;;;;;4846368;29;20080;-88
2023/07/18 03:48:56;;;;;;;0.38;0.30;;;12.90;94.40;;;;;;4845504;29;20052;-88
2023/07/18 03:51:22;;;;;;;0.50;0.40;;;12.90;94.70;;;;;;4845873;29;20049;-88
2023/07/18 03:53:55;;;;;;;0.10;0.10;;;12.50;94.70;;;;;;4830259;29;20063;-88
2023/07/18 03:56:30;;;;;;;0.40;0.32;;;12.90;94.60;;;;;;4816905;29;20053;-88
2023/07/18 03:59:01;;;;;;;0.28;0.28;;;12.90;94.10;;;;;;4845551;29;20053;-88
2023/07/18 04:01:27;;;;;;;0.30;0.30;;;12.30;94.30;;;;;;4844763;29;20451;-88
2023/07/18 04:03:53;;;;;;;0.40;0.37;;;12.80;94.70;;;;;;4843299;29;20049;-89
2023/07/18 04:06:21;;;;;;;0.30;0.30;;;12.90;95.40;;;;;;4862845;29;20049;-88
2023/07/18 04:08:47;;;;;;;0.50;0.50;;;12.80;95.90;;;;;;4864159;29;20045;-88
2023/07/18 04:11:13;;;;;;;0.40;0.40;;;12.80;96.50;;;;;;4863491;29;20051;-88
2023/07/18 04:13:41;;;;;;;0.53;0.10;;;12.90;96.80;;;;;;4848705;29;20055;-88
2023/07/18 04:16:07;;;;;;;0.32;0.32;;;12.90;96.40;;;;;;4848221;29;20080;-88
2023/07/18 04:18:33;;;;;;;0.22;0.22;;;12.80;96.20;;;;;;4864002;29;20049;-88
2023/07/18 04:21:04;;;;;;;0.32;0.30;;;12.90;95.60;;;;;;4847838;29;20065;-88
2023/07/18 04:23:31;;;;;;;0.98;0.50;;;13.00;95.60;;;;;;4848564;29;20041;-88
2023/07/18 04:26:02;;;;;;;0.45;0.38;;;13.00;97.10;;;;;;4847715;29;20109;-88
2023/07/18 04:28:34;;;;;;;0.45;0.35;;;12.90;97.10;;;;;;4863363;29;20053;-87
2023/07/18 04:31:01;;;;;;;0.85;0.57;;;12.90;96.60;;;;;;4862619;29;20104;-88
2023/07/18 04:33:27;;;;;;;0.75;0.40;;;12.90;96.10;;;;;;4862636;29;20072;-87
2023/07/18 04:35:53;;;;;;;0.15;0.15;;;12.90;96.50;;;;;;4849818;29;20060;-88
2023/07/18 04:38:19;;;;;;;0.10;0.10;;;12.90;95.30;;;;;;4847945;29;20131;-88
2023/07/18 04:40:45;;;;;;;0.63;0.38;;;12.90;96.10;;;;;;4863527;29;20045;-88
2023/07/18 04:43:11;;;;;;;0.30;0.30;;;13.00;96.60;;;;;;4862575;29;20197;-88
2023/07/18 04:45:47;;;;;;;0.83;0.50;;;13.00;95.60;;;;;;4847929;29;20413;-87
2023/07/18 04:48:20;;;;;;;1.50;0.77;;;13.00;95.70;;;;;;4878589;29;20201;-87
2023/07/18 04:50:52;;;;;;;0.28;0.20;;;13.00;96.90;;;;;;4848116;29;20057;-88
2023/07/18 04:53:20;;;;;;;0.38;0.35;;;13.00;97.70;;;;;;4879254;29;20140;-88
2023/07/18 04:56:00;;;;;;;0.32;0.32;;;13.00;98.80;;;;;;4863265;29;20196;-88
2023/07/18 04:58:29;;;;;;;0.50;0.50;;;13.10;97.50;;;;;;4863651;29;20080;-88
2023/07/18 05:00:56;;;;;;;0.43;0.30;;;13.10;99.10;;;;;;4847534;29;20060;-88
2023/07/18 05:03:24;;;;;;;0.45;0.45;;;13.10;97.90;;;;;;4846565;29;20413;-88
2023/07/18 05:05:53;;;;;;;1.00;0.40;;;13.10;99.90;;;;;;4863195;29;20454;-88
2023/07/18 05:08:27;;;;;;;0.30;0.30;;;13.10;99.30;;;;;;4843302;29;20245;-88
2023/07/18 05:11:03;;;;;;;0.60;0.43;;;13.10;99.30;;;;;;4829808;29;20061;-88
2023/07/18 05:13:32;;;;;;;0.35;0.35;;;13.20;99.90;;;;;;4843938;29;20057;-87
2023/07/18 05:16:01;;;;;;;0.63;0.63;;;13.20;97.50;;;;;;4844596;29;20132;-88
2023/07/18 05:18:27;;;;;;;0.63;0.55;;;13.20;97.80;;;;;;4844350;29;20050;-88
2023/07/18 05:21:11;;;;;;;0.30;0.30;;;13.20;98.90;;;;;;4829254;29;20109;-88
2023/07/18 05:23:40;;;;;;;0.15;0.15;;;12.50;98.10;;;;;;4814427;29;20419;-88
2023/07/18 05:26:07;;;;;;;0.22;0.22;;;13.20;97.70;;;;;;4843936;29;20468;-88
2023/07/18 05:28:33;;;;;;;0.40;0.40;;;13.30;99.40;;;;;;4851589;29;20049;-88
2023/07/18 05:31:10;;;;;;;0.63;0.63;;;13.30;99.90;;;;;;4862681;29;20065;-88
2023/07/18 05:33:41;;;;;;;0.25;0.25;;;13.50;99.90;;;;;;4847231;29;20104;-88
2023/07/18 05:36:07;;;;;;;0.20;0.20;;;13.60;99.90;;;;;;4853950;29;20053;-88
2023/07/18 05:38:35;;;;;;;0.40;0.30;;;13.90;99.90;;;;;;4846607;29;20105;-88
2023/07/18 05:41:03;;;;;;;0.20;0.20;;;14.10;99.90;;;;;;4862622;29;20325;-88
2023/07/18 05:43:38;;;;;;;0.20;0.20;;;14.20;99.00;;;;;;4861305;29;20116;-88
2023/07/18 05:46:04;;;;;;;0.13;0.13;;;15.10;98.00;;;;;;4862510;29;20067;-88
2023/07/18 05:48:32;;;;;;;0.30;0.30;;;14.40;97.40;;;;;;4879128;29;20045;-88
2023/07/18 05:51:00;;;;;;;0.38;0.38;;;14.60;97.00;;;;;;4862377;29;20056;-88
2023/07/18 05:53:26;;;;;;;0.20;0.17;;;14.70;95.50;;;;;;4861691;29;20053;-88
2023/07/18 05:55:52;;;;;;;0.45;0.30;;;14.70;92.50;;;;;;4862025;29;20071;-88
2023/07/18 05:58:20;;;;;;;0.25;0.22;;;14.70;93.00;;;;;;4846454;29;20121;-88
2023/07/18 06:00:46;;;;;;;0.10;0.10;;;14.80;92.80;;;;;;4877807;29;20104;-88
2023/07/18 06:03:12;;;;;;;0.68;0.40;;;14.90;97.80;;;;;;4861934;29;20053;-88
2023/07/18 06:05:38;;;;;;;0.43;0.38;;;15.00;96.30;;;;;;4845941;29;20164;-88
2023/07/18 06:08:05;;;;;;;1.85;0.50;;;15.10;96.90;;;;;;4862459;29;20520;-89
2023/07/18 06:10:31;;;;;;;0.10;0.10;;;15.30;95.40;;;;;;4846405;29;20205;-88
2023/07/18 06:12:56;;;;;;;0.20;0.20;;;14.60;95.20;;;;;;4846760;29;20055;-88
2023/07/18 06:15:22;;;;;;;1.95;0.50;;;15.60;94.90;;;;;;4846508;29;20165;-88
2023/07/18 06:17:51;;;;;;;0.20;0.20;;;15.70;92.40;;;;;;4862025;29;20053;-88
2023/07/18 06:20:19;;;;;;;0.30;0.30;;;15.10;87.70;;;;;;4846560;29;20148;-90
2023/07/18 06:22:53;;;;;;;1.65;0.85;;;15.70;86.20;;;;;;4845002;29;20064;-90
2023/07/18 06:25:29;;;;;;;0.50;0.35;;;15.70;82.20;;;;;;4862324;29;20127;-88
2023/07/18 06:28:04;;;;;;;0.32;0.32;;;15.60;86.10;;;;;;4864260;29;20053;-88
2023/07/18 06:30:32;;;;;;;0.30;0.30;;;15.60;84.90;;;;;;4849935;29;20512;-88
2023/07/18 06:32:59;;;;;;;0.45;0.30;;;15.60;90.30;;;;;;4865343;29;20052;-88
2023/07/18 06:35:24;;;;;;;0.80;0.32;;;15.60;88.40;;;;;;4864011;29;20048;-87
2023/07/18 06:37:50;;;;;;;0.75;0.30;;;15.70;90.90;;;;;;4860893;29;20129;-88
2023/07/18 06:40:17;;;;;;;0.28;0.20;;;15.70;86.80;;;;;;4847814;29;20048;-87
2023/07/18 06:42:43;;;;;;;1.75;0.22;;;15.80;85.50;;;;;;4865673;29;20053;-83
2023/07/18 06:45:12;;;;;;;0.40;0.20;;;15.80;85.50;;;;;;4881438;29;20113;-93
2023/07/18 06:47:38;;;;;;;0.15;0.15;;;15.90;84.10;;;;;;4865207;29;20060;-86
2023/07/18 06:50:04;;;;;;;0.52;0.30;;;15.90;82.50;;;;;;4865296;29;20486;-87
2023/07/18 06:52:30;;;;;;;0.80;0.55;;;15.90;85.70;;;;;;4864746;29;20045;-87
2023/07/18 06:54:55;;;;;;;1.48;0.40;;;16.00;86.00;;;;;;4849472;29;20072;-88
2023/07/18 06:57:21;;;;;;;0.30;0.20;;;16.00;87.30;;;;;;4864866;29;20057;-88
2023/07/18 06:59:47;;;;;;;0.70;0.50;;;16.00;88.10;;;;;;4861802;29;20406;-86
2023/07/18 07:02:13;;;;;;;0.00;0.00;;;16.10;83.80;;;;;;4864299;29;20447;-86
2023/07/18 07:04:39;;;;;;;0.20;0.20;;;16.10;82.60;;;;;;4864395;29;20060;-86
2023/07/18 07:07:08;;;;;;;0.32;0.28;;;16.10;81.20;;;;;;4864470;29;20136;-86
2023/07/18 07:09:34;;;;;;;0.73;0.20;;;16.10;82.30;;;;;;4864609;29;20064;-88
2023/07/18 07:12:00;;;;;;;0.25;0.13;;;16.20;81.30;;;;;;4848417;29;20041;-88
2023/07/18 07:14:26;;;;;;;0.10;0.10;;;16.20;83.40;;;;;;4864524;29;20123;-88
2023/07/18 07:16:52;;;;;;;0.68;0.30;;;16.20;84.40;;;;;;4849137;29;20053;-87
2023/07/18 07:19:18;;;;;;;0.17;0.15;;;16.30;82.40;;;;;;4864076;29;20378;-87
2023/07/18 07:21:45;;;;;;;0.23;0.10;;;16.30;82.80;;;;;;4864552;29;20052;-86
2023/07/18 07:24:11;;;;;;;0.00;0.00;;;16.30;85.30;;;;;;4864220;29;20290;-87
2023/07/18 07:26:37;;;;;;;0.15;0.15;;;16.40;85.10;;;;;;4864304;29;20801;-90
2023/07/18 07:29:04;;;;;;;0.20;0.10;;;16.50;85.00;;;;;;4849391;29;20053;-90
2023/07/18 07:31:31;;;;;;;0.20;0.20;;;16.50;90.40;;;;;;4863722;29;20049;-90
2023/07/18 07:33:57;;;;;;;0.43;0.43;;;16.60;91.00;;;;;;4849863;29;20057;-90
2023/07/18 07:36:23;;;;;;;0.15;0.13;;;16.80;86.40;;;;;;4863688;29;20101;-91
2023/07/18 07:38:49;;;;;;;0.28;0.28;;;16.80;87.50;;;;;;4864548;29;20045;-90
2023/07/18 07:41:15;;;;;;;0.35;0.22;;;16.80;80.70;;;;;;4849514;29;20438;-91
2023/07/18 07:43:41;;;;;;;0.10;0.10;;;16.90;81.80;;;;;;4864601;29;20049;-90
2023/07/18 07:46:07;;;;;;;0.10;0.10;;;17.10;85.80;;;;;;4849390;29;20060;-91
2023/07/18 07:48:33;;;;;;;0.38;0.30;;;17.10;79.50;;;;;;4848935;29;20057;-90
2023/07/18 07:51:03;;;;;;;0.17;0.17;;;17.10;77.10;;;;;;4864831;29;20519;-91
2023/07/18 07:53:30;;;;;;;0.20;0.20;;;17.10;78.20;;;;;;4848811;29;20395;-90
2023/07/18 07:55:56;;;;;;;0.20;0.20;;;17.10;76.70;;;;;;4845348;29;20167;-91
2023/07/18 07:58:21;;;;;;;0.20;0.20;;;17.00;76.10;;;;;;4875425;29;20046;-88
2023/07/18 08:00:47;;;;;;;0.30;0.30;;;17.00;75.90;;;;;;4862420;29;20045;-91
2023/07/18 08:03:13;;;;;;;0.20;0.20;;;16.90;76.50;;;;;;4861497;29;20510;-90
2023/07/18 08:05:39;;;;;;;0.30;0.28;;;16.90;76.90;;;;;;4876324;29;20509;-91
2023/07/18 08:08:04;;;;;;;0.10;0.10;;;16.90;78.60;;;;;;4877091;29;20090;-90
2023/07/18 08:10:30;;;;;;;0.28;0.28;;;16.90;80.30;;;;;;4876540;29;20052;-90
2023/07/18 08:12:56;;;;;;;0.10;0.10;;;16.80;80.10;;;;;;4861438;29;20132;-91
2023/07/18 08:15:22;;;;;;;0.40;0.40;;;16.80;81.50;;;;;;4830749;29;20053;-90
2023/07/18 08:17:48;;;;;;;0.45;0.20;;;16.80;80.70;;;;;;4860732;29;20080;-90
2023/07/18 08:20:13;;;;;;;0.22;0.20;;;16.80;77.80;;;;;;4861122;29;20062;-91
2023/07/18 08:22:39;;;;;;;0.22;0.20;;;16.80;76.80;;;;;;4878438;29;20041;-91
2023/07/18 08:25:05;;;;;;;0.17;0.17;;;16.80;78.80;;;;;;4863773;29;20052;-90
2023/07/18 08:27:31;;;;;;;0.22;0.20;;;16.70;79.10;;;;;;4863798;29;20053;-91
2023/07/18 08:29:57;;;;;;;0.28;0.13;;;16.80;78.30;;;;;;4863830;29;20077;-91
2023/07/18 08:32:22;;;;;;;0.22;0.22;;;16.80;79.00;;;;;;4863775;29;20055;-90
2023/07/18 08:34:48;;;;;;;0.50;0.45;;;16.70;79.40;;;;;;4863514;29;20450;-91
2023/07/18 08:37:14;;;;;;;0.38;0.38;;;16.80;79.70;;;;;;4863774;29;20048;-91
2023/07/18 08:39:39;;;;;;;0.17;0.17;;;16.80;82.30;;;;;;4847522;29;20045;-91
2023/07/18 08:42:08;;;;;;;0.28;0.17;;;16.90;83.40;;;;;;4863677;29;20169;-91
2023/07/18 08:44:35;;;;;;;0.20;0.20;;;17.10;89.60;;;;;;4863372;29;20516;-90
2023/07/18 08:47:05;;;;;;;0.38;0.28;;;17.20;86.10;;;;;;4848355;29;20064;-90
2023/07/18 08:49:33;;;;;;;0.38;0.38;;;17.30;83.90;;;;;;4861762;29;20501;-90
2023/07/18 08:52:00;;;;;;;0.20;0.20;;;17.50;81.70;;;;;;4862793;29;20049;-90
2023/07/18 08:54:26;;;;;;;0.63;0.35;;;17.60;79.30;;;;;;4862838;29;20174;-90
2023/07/18 08:56:52;;;;;;;0.32;0.20;;;17.80;76.50;;;;;;4862570;29;20139;-91
2023/07/18 08:59:19;;;;;;;0.38;0.22;;;17.90;73.70;;;;;;4848210;29;20405;-90
2023/07/18 09:01:51;;;;;;;0.20;0.20;;;18.10;69.30;;;;;;4863109;29;20193;-91
2023/07/18 09:04:18;;;;;;;0.43;0.32;;;18.40;70.10;;;;;;4848012;29;20053;-91
2023/07/18 09:06:48;;;;;;;0.57;0.57;;;18.40;63.40;;;;;;4847032;29;20055;-90
2023/07/18 09:09:21;;;;;;;0.15;0.15;;;18.50;61.30;;;;;;4847681;29;20406;-89
2023/07/18 09:12:16;;;;;;;0.10;0.10;;;18.40;57.50;;;;;;4847379;29;20056;-91
2023/07/18 09:14:42;;;;;;;0.20;0.20;;;18.40;55.70;;;;;;4862276;29;20060;-90
2023/07/18 09:17:08;;;;;;;0.10;0.10;;;18.40;55.20;;;;;;4862337;29;20061;-89
2023/07/18 09:19:35;;;;;;;;;;;18.30;54.30;;;;;;4853997;29;20048;-89
2023/07/18 09:22:01;;;;;;;0.20;0.20;;;18.30;40.70;;;;;;4863018;29;20365;-90
2023/07/18 09:24:31;;;;;;;0.10;0.10;;;18.30;44.50;;;;;;4863037;29;20073;-90
2023/07/18 09:26:57;;;;;;;0.35;0.20;;;18.30;43.40;;;;;;4847183;29;20049;-89
2023/07/18 09:29:25;;;;;;;0.15;0.15;;;18.30;45.30;;;;;;4862967;29;20049;-90
2023/07/18 09:31:50;;;;;;;1.85;0.43;;;18.30;41.50;;;;;;4862299;29;20100;-90
2023/07/18 09:34:18;;;;;;;0.17;0.10;;;18.30;41.80;;;;;;4847397;29;20061;-89
2023/07/18 09:36:56;;;;;;;0.45;0.22;;;18.30;37.10;;;;;;4846945;29;20088;-91
2023/07/18 09:39:23;;;;;;;0.47;0.20;;;18.30;40.70;;;;;;4862875;29;20057;-90
2023/07/18 09:41:50;;;;;;;0.10;0.10;;;18.30;35.30;;;;;;4846740;29;20132;-90
2023/07/18 09:44:16;;;;;;;0.10;0.10;;;18.40;34.80;;;;;;4861591;29;20192;-90
2023/07/18 09:46:43;;;;;;;;;;;18.50;31.60;;;;;;4862755;29;20136;-90
2023/07/18 09:49:09;;;;;;;0.20;0.20;;;18.50;29.90;;;;;;4877994;29;19975;-90
2023/07/18 09:51:38;;;;;;;0.25;0.00;;;18.60;19.70;;;;;;4862603;29;20056;-91
2023/07/18 09:54:06;;;;;;;0.10;0.10;;;18.60;16.40;;;;;;4846832;29;20545;-90
2023/07/18 09:56:39;;;;;;;0.10;0.10;;;18.70;6.40;;;;;;4862197;29;20063;-89
2023/07/18 09:59:08;;;;;;;0.15;0.15;;;18.70;1.00;;;;;;4847804;29;20044;-90
2023/07/18 10:01:34;;;;;;;0.10;0.10;;;18.70;1.00;;;;;;4852999;29;20494;-91
2023/07/18 10:04:01;;;;;;;0.38;0.25;;;18.70;1.00;;;;;;4868054;29;20546;-90
2023/07/18 10:06:27;;;;;;;0.10;0.10;;;18.80;1.00;;;;;;4868729;29;20053;-90
2023/07/18 10:08:53;;;;;;;;;;;18.80;1.00;;;;;;4867753;29;20132;-90
2023/07/18 10:11:19;;;;;;;0.65;0.50;;;18.80;1.00;;;;;;4853058;29;19924;-90
2023/07/18 10:13:54;;;;;;;0.10;0.10;;;18.80;1.00;;;;;;4883515;29;20081;-91
2023/07/18 10:16:20;;;;;;;2.28;0.20;;;19.00;1.00;;;;;;4852746;29;20139;-90
2023/07/18 10:18:47;;;;;;;1.25;1.17;;;19.10;1.00;;;;;;4852234;29;20088;-90
2023/07/18 10:21:30;;;;;;;0.10;0.10;;;19.30;1.00;;;;;;4868379;29;20041;-89
2023/07/18 10:23:56;;;;;;;0.28;0.28;;;19.40;99.90;;;;;;4852590;29;20056;-90
2023/07/18 10:26:32;;;;;;;0.10;0.10;;;19.60;1.00;;;;;;4852768;29;20053;-90
2023/07/18 10:29:02;;;;;;;0.20;0.20;;;19.70;99.90;;;;;;4867960;29;20538;-89
2023/07/18 10:31:38;;;;;;;0.10;0.10;;;19.70;1.00;;;;;;4868139;29;20049;-89
2023/07/18 10:34:07;;;;;;;0.17;0.10;;;19.80;1.00;;;;;;4851619;29;20104;-89
2023/07/18 10:36:35;;;;;;;0.15;0.10;;;19.80;99.90;;;;;;4849800;29;20503;-89
2023/07/18 10:39:10;;;;;;;0.20;0.20;;;19.90;1.00;;;;;;4849297;29;20053;-89
2023/07/18 10:41:36;;;;;;;0.13;0.13;;;20.00;99.90;;;;;;4849926;29;20042;-89
2023/07/18 10:44:02;;;;;;;0.10;0.10;;;20.10;99.90;;;;;;4849382;29;20692;-89
2023/07/18 10:46:36;;;;;;;0.17;0.17;;;20.10;99.90;;;;;;4849883;29;20140;-89
2023/07/18 10:49:03;;;;;;;0.40;0.40;;;20.10;99.90;;;;;;4849040;29;20494;-89
2023/07/18 10:51:32;;;;;;;0.30;0.30;;;20.20;99.90;;;;;;4849615;29;20049;-89
2023/07/18 10:53:59;;;;;;;0.10;0.10;;;20.40;99.90;;;;;;4865205;29;20090;-89
2023/07/18 10:56:25;;;;;;;0.82;0.17;;;20.50;99.90;;;;;;4849565;29;20102;-89
2023/07/18 10:58:51;;;;;;;0.28;0.13;;;20.70;99.90;;;;;;4849126;29;20053;-89
2023/07/18 11:01:17;;;;;;;0.10;0.10;;;20.70;99.90;;;;;;4854411;29;20047;-90
2023/07/18 11:03:47;;;;;;;0.00;0.00;;;20.70;1.00;;;;;;4863037;29;20452;-88
2023/07/18 11:06:16;;;;;;;0.10;0.10;;;20.80;55.50;;;;;;4880314;29;20102;-90
2023/07/18 11:08:45;;;;;;;0.10;0.10;;;20.90;1.00;;;;;;4880477;29;20056;-89
2023/07/18 11:11:11;;;;;;;0.17;0.10;;;21.00;1.00;;;;;;4879169;29;20057;-90
2023/07/18 11:13:38;;;;;;;0.10;0.10;;;21.10;1.00;;;;;;4861731;29;20129;-89
2023/07/18 11:16:08;;;;;;;0.20;0.20;;;21.30;20.50;;;;;;4876996;29;20045;-89
2023/07/18 11:18:36;;;;;;;0.00;0.00;;;21.40;11.10;;;;;;4877128;29;20502;-89
2023/07/18 11:21:03;;;;;;;0.05;0.05;;;21.40;99.90;;;;;;4876417;29;20049;-90
2023/07/18 11:23:30;;;;;;;0.00;0.00;;;21.40;99.90;;;;;;4846438;29;20053;-89
2023/07/18 11:25:56;;;;;;;0.00;0.00;;;21.30;99.90;;;;;;4876852;29;20566;-88
2023/07/18 11:28:27;;;;;;;0.10;0.10;;;21.30;99.90;;;;;;4876348;29;20053;-89
2023/07/18 11:30:53;;;;;;;0.30;0.10;;;21.30;1.00;;;;;;4876048;29;20053;-89
2023/07/18 11:33:19;;;;;;;0.10;0.10;;;21.40;99.90;;;;;;4861345;29;20467;-89
2023/07/18 11:35:48;;;;;;;0.08;0.08;;;21.40;99.90;;;;;;4861528;29;20053;-89
2023/07/18 11:38:17;;;;;;;0.10;0.10;;;21.50;99.90;;;;;;4876580;29;20049;-88
2023/07/18 11:40:43;;;;;;;0.38;0.20;;;21.70;99.90;;;;;;4876909;29;20093;-89
2023/07/18 11:43:18;;;;;;;0.82;0.38;;;21.80;1.00;;;;;;4876520;29;20549;-89
2023/07/18 11:45:44;;;;;;;0.20;0.10;;;21.80;4.10;;;;;;4846205;29;20411;-89
2023/07/18 11:48:13;;;;;;;1.73;0.38;;;22.00;99.90;;;;;;4876469;29;20132;-89
2023/07/18 11:50:45;;;;;;;0.05;0.05;;;22.00;99.90;;;;;;4862475;29;20064;-89
2023/07/18 11:53:11;;;;;;;0.17;0.03;;;22.00;99.90;;;;;;4860635;29;20223;-88
2023/07/18 11:55:37;;;;;;;;;;;22.00;1.00;;;;;;4876445;29;20060;-89
2023/07/18 11:58:07;;;;;;;0.10;0.10;;;22.10;99.90;;;;;;4876564;29;19924;-90
2023/07/18 12:00:35;;;;;;;0.35;0.00;;;22.00;99.90;;;;;;4876965;29;20058;-89
2023/07/18 12:03:02;;;;;;;0.00;0.00;;;21.90;1.00;;;;;;4876551;29;20471;-89
2023/07/18 12:05:27;;;;;;;;;;;21.80;1.00;;;;;;4862630;29;20060;-89
2023/07/18 12:07:53;;;;;;;0.00;0.00;;;21.70;99.90;;;;;;4845854;29;20276;-89
2023/07/18 12:10:21;;;;;;;0.00;0.00;;;21.60;99.90;;;;;;4830558;29;20128;-90
2023/07/18 12:12:46;;;;;;;0.00;0.00;;;21.40;1.00;;;;;;4876384;29;20046;-89
2023/07/18 12:15:13;;;;;;;0.55;0.25;;;21.40;1.00;;;;;;4876213;29;20067;-89
2023/07/18 12:17:39;;;;;;;0.15;0.15;;;21.30;99.90;;;;;;4861267;29;20049;-89
2023/07/18 12:20:06;;;;;;;;;;;21.20;99.90;;;;;;4860631;29;20064;-89
2023/07/18 12:22:32;;;;;;;0.10;0.10;;;21.10;99.90;;;;;;4875248;29;19979;-89
2023/07/18 12:24:58;;;;;;;0.10;0.10;;;21.10;1.00;;;;;;4848329;29;20100;-88
2023/07/18 12:27:27;;;;;;;0.00;0.00;;;21.10;1.20;;;;;;4863982;29;20091;-89
2023/07/18 12:29:52;;;;;;;0.00;0.00;;;21.10;99.50;;;;;;4864029;29;20044;-89
2023/07/18 12:32:18;;;;;;;0.10;0.10;;;21.10;72.60;;;;;;4863250;29;20105;-88
2023/07/18 12:34:44;;;;;;;0.13;0.13;;;21.20;30.00;;;;;;4864094;29;20064;-89
2023/07/18 12:37:09;;;;;;;0.57;0.00;;;21.10;91.70;;;;;;4847737;29;20057;-89
2023/07/18 12:39:35;;;;;;;0.00;0.00;;;21.20;99.90;;;;;;4848106;29;20053;-89
2023/07/18 12:42:01;;;;;;;0.00;0.00;;;21.10;99.90;;;;;;4863414;29;20084;-89
2023/07/18 12:44:46;;;;;;;1.55;0.10;;;21.00;99.90;;;;;;4879087;29;20049;-89
2023/07/18 12:47:12;;;;;;;0.10;0.10;;;21.00;99.90;;;;;;4846972;29;20553;-89
2023/07/18 12:49:38;;;;;;;0.30;0.15;;;21.00;99.90;;;;;;4875623;29;20132;-89
2023/07/18 12:52:05;;;;;;;0.40;0.40;;;20.90;99.90;;;;;;4875405;29;20487;-90